Time;durP1;ratioP1;P1;durP2;ratioP2;P2;SDS_P1;SDS_P2;PMS_P1;PMS_P2;Temp;Humidity;BMP_temperature;BMP_pressure;BME280_temperature;BME280_humidity;BME280_pressure;Samples;Min_cycle;Max_cycle;Signal;HPM_P1;HPM_P2
2022/07/04 00:00:49;;;;;;;667.45;624.20;;;12.50;99.90;;;;;;5113169;28;20389;-59
2022/07/04 00:03:15;;;;;;;607.17;569.47;;;12.40;99.90;;;;;;5103998;28;20040;-59
2022/07/04 00:05:41;;;;;;;615.45;577.90;;;12.30;99.90;;;;;;5094064;28;20383;-59
2022/07/04 00:08:07;;;;;;;644.30;603.75;;;12.30;99.90;;;;;;5095397;28;20100;-59
2022/07/04 00:10:33;;;;;;;681.17;637.03;;;12.10;99.90;;;;;;5096404;28;20052;-59
2022/07/04 00:12:59;;;;;;;627.40;587.88;;;12.00;99.90;;;;;;5113107;28;20493;-59
2022/07/04 00:15:24;;;;;;;616.72;578.67;;;12.00;99.90;;;;;;5113566;28;20135;-59
2022/07/04 00:17:51;;;;;;;576.78;541.53;;;12.00;99.90;;;;;;5113851;28;20039;-59
2022/07/04 00:20:17;;;;;;;645.10;603.17;;;12.00;99.90;;;;;;5113314;28;20050;-59
2022/07/04 00:22:44;;;;;;;700.28;652.70;;;11.90;99.90;;;;;;5114250;28;20043;-59
2022/07/04 00:25:10;;;;;;;601.17;563.25;;;11.90;99.90;;;;;;5114003;28;20421;-59
2022/07/04 00:27:35;;;;;;;633.60;592.50;;;11.90;99.90;;;;;;5113072;28;20039;-59
2022/07/04 00:30:02;;;;;;;556.35;520.92;;;11.90;99.90;;;;;;5114363;28;20066;-59
2022/07/04 00:32:28;;;;;;;624.38;586.00;;;12.00;99.90;;;;;;5113761;28;20390;-59
2022/07/04 00:34:54;;;;;;;598.28;560.45;;;12.20;99.90;;;;;;5112986;28;20051;-59
2022/07/04 00:37:20;;;;;;;578.72;542.83;;;12.30;99.90;;;;;;5113425;28;20035;-59
2022/07/04 00:39:46;;;;;;;515.40;484.52;;;12.50;99.90;;;;;;5113105;28;20047;-59
2022/07/04 00:42:11;;;;;;;579.38;544.47;;;12.50;99.90;;;;;;5112952;28;20046;-59
2022/07/04 00:44:37;;;;;;;550.90;517.22;;;12.60;99.90;;;;;;5112775;28;20236;-59
2022/07/04 00:47:05;;;;;;;590.35;553.67;;;12.60;99.90;;;;;;5113327;28;20042;-59
2022/07/04 00:49:31;;;;;;;553.78;520.33;;;12.60;99.90;;;;;;5094383;28;20043;-59
2022/07/04 00:51:58;;;;;;;578.97;543.85;;;12.70;99.90;;;;;;5113370;28;20067;-59
2022/07/04 00:54:28;;;;;;;594.90;558.17;;;12.70;99.90;;;;;;5111270;28;20393;-59
2022/07/04 00:56:55;;;;;;;536.85;505.20;;;12.70;99.90;;;;;;5112999;28;20138;-59
2022/07/04 00:59:20;;;;;;;523.35;492.65;;;12.70;99.90;;;;;;5113414;28;20061;-59
2022/07/04 01:01:46;;;;;;;540.47;508.75;;;12.60;99.90;;;;;;5094211;28;20499;-59
2022/07/04 01:04:12;;;;;;;562.72;528.65;;;12.60;99.90;;;;;;5112832;28;20040;-59
2022/07/04 01:06:38;;;;;;;546.80;514.15;;;12.50;99.90;;;;;;5113610;28;20043;-59
2022/07/04 01:09:04;;;;;;;572.22;536.63;;;12.50;99.90;;;;;;5113343;28;20521;-59
2022/07/04 01:11:30;;;;;;;505.13;475.67;;;12.40;99.90;;;;;;5112456;28;20401;-59
2022/07/04 01:13:57;;;;;;;556.42;522.55;;;12.50;99.90;;;;;;5113357;28;20044;-59
2022/07/04 01:16:25;;;;;;;597.92;560.83;;;12.40;99.90;;;;;;5112697;28;20043;-59
2022/07/04 01:18:52;;;;;;;509.13;478.92;;;12.50;99.90;;;;;;5112018;28;20489;-59
2022/07/04 01:21:18;;;;;;;571.65;536.50;;;12.40;99.90;;;;;;5113410;28;20447;-59
2022/07/04 01:23:44;;;;;;;537.20;503.08;;;12.40;99.90;;;;;;5112317;28;20039;-59
2022/07/04 01:26:11;;;;;;;599.35;561.85;;;12.30;99.90;;;;;;5113485;28;20070;-59
2022/07/04 01:28:37;;;;;;;500.10;470.88;;;12.30;99.90;;;;;;5112746;28;20374;-59
2022/07/04 01:31:03;;;;;;;534.95;502.65;;;12.30;99.90;;;;;;5111922;28;20126;-59
2022/07/04 01:33:29;;;;;;;684.28;638.67;;;12.20;99.90;;;;;;5094913;28;20147;-59
2022/07/04 01:35:55;;;;;;;641.33;599.55;;;12.10;99.90;;;;;;5113393;28;20043;-59
2022/07/04 01:38:21;;;;;;;568.20;532.53;;;12.10;99.90;;;;;;5111689;28;20052;-59
2022/07/04 01:40:47;;;;;;;606.47;568.28;;;12.00;99.90;;;;;;5113160;28;20055;-59
2022/07/04 01:43:13;;;;;;;631.20;590.00;;;11.90;99.90;;;;;;5077898;28;20043;-59
2022/07/04 01:45:39;;;;;;;646.08;603.60;;;11.90;99.90;;;;;;5111517;28;20405;-59
2022/07/04 01:48:07;;;;;;;614.60;575.20;;;11.90;99.90;;;;;;5113286;28;20118;-59
2022/07/04 01:50:34;;;;;;;566.33;531.15;;;11.90;99.90;;;;;;5113211;28;20047;-59
2022/07/04 01:53:00;;;;;;;615.40;573.17;;;11.80;99.90;;;;;;5111874;28;20455;-59
2022/07/04 01:55:26;;;;;;;548.67;516.08;;;11.80;99.90;;;;;;5112674;28;20091;-59
2022/07/04 01:57:52;;;;;;;592.35;555.83;;;11.70;99.90;;;;;;5112956;28;20044;-59
2022/07/04 02:03:02;;;;;;;514.05;484.58;;;11.70;99.90;;;;;;5112731;28;20047;-59
2022/07/04 02:05:27;;;;;;;567.45;532.58;;;11.60;99.90;;;;;;5111526;28;20104;-59
2022/07/04 02:07:53;;;;;;;542.45;510.08;;;11.60;99.90;;;;;;5111676;28;20065;-59
2022/07/04 02:10:19;;;;;;;493.05;462.80;;;11.60;99.90;;;;;;5112791;28;20148;-59
2022/07/04 02:13:03;;;;;;;572.65;535.83;;;11.60;99.90;;;;;;5112350;28;20040;-59
2022/07/04 02:15:31;;;;;;;520.72;490.92;;;11.50;99.90;;;;;;5115882;28;20051;-59
2022/07/04 02:17:57;;;;;;;556.17;521.05;;;11.40;99.90;;;;;;5116871;28;20447;-59
2022/07/04 02:20:23;;;;;;;591.17;553.83;;;11.30;99.90;;;;;;5115598;28;20069;-59
2022/07/04 02:22:49;;;;;;;538.72;508.23;;;11.30;99.90;;;;;;5097701;28;20044;-59
2022/07/04 02:25:15;;;;;;;514.40;484.25;;;11.30;99.90;;;;;;5116348;28;20046;-59
2022/07/04 02:27:41;;;;;;;497.58;469.05;;;11.30;99.90;;;;;;5115983;28;20039;-59
2022/07/04 02:30:07;;;;;;;448.38;423.45;;;11.30;99.90;;;;;;5115933;28;20123;-59
2022/07/04 02:32:33;;;;;;;515.03;484.90;;;11.30;99.90;;;;;;5116627;28;20043;-59
2022/07/04 02:34:59;;;;;;;533.08;500.42;;;11.40;99.90;;;;;;5115813;28;20047;-59
2022/07/04 02:37:25;;;;;;;559.58;525.92;;;11.40;99.90;;;;;;5116019;28;20043;-59
2022/07/04 02:39:51;;;;;;;570.25;535.20;;;11.40;99.90;;;;;;5115819;28;20054;-59
2022/07/04 02:42:16;;;;;;;595.70;560.83;;;11.50;99.90;;;;;;5115454;28;20043;-59
2022/07/04 02:44:43;;;;;;;605.42;567.75;;;11.40;99.90;;;;;;5116050;28;20122;-59
2022/07/04 02:47:09;;;;;;;549.92;517.47;;;11.40;99.90;;;;;;5116374;28;20048;-59
2022/07/04 02:49:35;;;;;;;476.08;450.45;;;11.40;99.90;;;;;;5115234;28;20044;-59
2022/07/04 02:52:01;;;;;;;612.55;572.38;;;11.40;99.90;;;;;;5115920;28;20051;-59
2022/07/04 02:54:26;;;;;;;656.60;614.10;;;11.40;99.90;;;;;;5115732;28;20084;-59
2022/07/04 02:56:52;;;;;;;623.35;583.10;;;11.30;99.90;;;;;;5114983;28;20042;-59
2022/07/04 02:59:18;;;;;;;581.75;543.38;;;11.20;99.90;;;;;;5115421;28;20043;-59
2022/07/04 03:01:44;;;;;;;691.38;645.65;;;11.10;99.90;;;;;;5116086;28;20044;-59
2022/07/04 03:04:09;;;;;;;607.45;569.08;;;11.00;99.90;;;;;;5115087;28;20078;-59
2022/07/04 03:06:35;;;;;;;614.03;574.42;;;11.00;99.90;;;;;;5115344;28;20042;-59
2022/07/04 03:09:01;;;;;;;614.28;574.28;;;10.90;99.90;;;;;;5115650;28;20473;-59
2022/07/04 03:11:27;;;;;;;622.50;582.85;;;10.90;99.90;;;;;;5115388;28;20051;-59
2022/07/04 03:13:53;;;;;;;585.80;547.80;;;10.90;99.90;;;;;;5096832;28;20047;-59
2022/07/04 03:16:18;;;;;;;579.05;541.22;;;10.90;99.90;;;;;;5114789;28;20044;-59
2022/07/04 03:18:44;;;;;;;546.10;510.17;;;10.90;99.90;;;;;;5115372;28;20196;-59
2022/07/04 03:21:10;;;;;;;637.08;595.08;;;10.90;99.90;;;;;;5115214;28;20043;-59
2022/07/04 03:23:36;;;;;;;616.80;576.05;;;10.90;99.90;;;;;;5095888;28;20127;-59
2022/07/04 03:26:02;;;;;;;656.08;609.35;;;10.80;99.90;;;;;;5114743;28;20071;-59
2022/07/04 03:28:28;;;;;;;586.10;547.90;;;10.90;99.90;;;;;;5114600;28;20047;-59
2022/07/04 03:30:54;;;;;;;579.47;540.35;;;10.80;99.90;;;;;;5113508;28;20043;-59
2022/07/04 03:33:20;;;;;;;674.95;627.25;;;10.80;99.90;;;;;;5114460;28;20077;-59
2022/07/04 03:35:46;;;;;;;729.33;676.20;;;10.80;99.90;;;;;;5115066;28;20500;-59
2022/07/04 03:38:12;;;;;;;817.25;756.13;;;10.80;99.90;;;;;;5114120;28;20483;-59
2022/07/04 03:40:38;;;;;;;791.50;731.90;;;10.90;99.90;;;;;;5114875;28;20056;-59
2022/07/04 03:43:06;;;;;;;732.88;682.63;;;10.90;99.90;;;;;;5114593;28;20051;-59
2022/07/04 03:45:32;;;;;;;636.10;593.15;;;10.90;99.90;;;;;;5114386;28;20054;-59
2022/07/04 03:47:59;;;;;;;694.60;646.35;;;10.90;99.90;;;;;;5096712;28;20054;-59
2022/07/04 03:50:24;;;;;;;758.53;705.15;;;10.90;99.90;;;;;;5114450;28;20408;-59
2022/07/04 03:52:51;;;;;;;715.30;664.35;;;10.90;99.90;;;;;;5114098;28;20051;-59
2022/07/04 03:55:17;;;;;;;690.65;643.83;;;10.90;99.90;;;;;;5096486;28;20100;-59
2022/07/04 03:57:43;;;;;;;726.10;675.00;;;10.90;99.90;;;;;;5114578;28;20060;-59
2022/07/04 04:00:10;;;;;;;680.53;634.63;;;10.90;99.90;;;;;;5113650;28;20043;-59
2022/07/04 04:02:41;;;;;;;664.30;620.33;;;11.00;99.90;;;;;;5114648;28;20142;-59
2022/07/04 04:07:52;;;;;;;744.13;691.13;;;11.10;99.90;;;;;;5114186;28;20043;-59
2022/07/04 04:10:19;;;;;;;742.45;689.83;;;11.10;99.90;;;;;;5114068;28;20481;-59
2022/07/04 04:12:45;;;;;;;710.42;661.65;;;11.20;99.90;;;;;;5112657;28;20046;-59
2022/07/04 04:15:11;;;;;;;734.00;682.65;;;11.30;99.90;;;;;;5095199;28;20055;-59
2022/07/04 04:17:37;;;;;;;541.20;507.55;;;11.30;99.90;;;;;;5110943;28;20043;-59
2022/07/04 04:20:03;;;;;;;619.05;578.10;;;11.40;99.90;;;;;;5112215;28;20043;-59
2022/07/04 04:22:30;;;;;;;681.70;637.42;;;11.70;99.90;;;;;;5113632;28;20044;-59
2022/07/04 04:24:57;;;;;;;570.15;534.38;;;11.90;99.90;;;;;;5113595;28;20447;-59
2022/07/04 04:27:23;;;;;;;552.03;518.83;;;12.10;99.90;;;;;;5112624;28;20487;-59
2022/07/04 04:29:48;;;;;;;668.08;625.60;;;12.20;99.90;;;;;;5110790;28;20398;-59
2022/07/04 04:32:14;;;;;;;621.72;581.55;;;12.30;99.90;;;;;;5113689;28;20043;-59
2022/07/04 04:34:40;;;;;;;564.45;529.80;;;12.40;99.90;;;;;;5112457;28;20092;-59
2022/07/04 04:37:06;;;;;;;601.00;563.33;;;12.40;99.90;;;;;;5113474;28;20031;-58
2022/07/04 04:39:32;;;;;;;535.83;502.25;;;12.50;99.90;;;;;;5113751;28;20051;-59
2022/07/04 04:41:58;;;;;;;552.25;518.25;;;12.60;99.90;;;;;;5112972;28;20063;-59
2022/07/04 04:44:23;;;;;;;483.23;454.48;;;12.80;99.90;;;;;;5113278;28;20040;-58
2022/07/04 04:46:49;;;;;;;519.83;487.00;;;12.90;99.90;;;;;;5113646;28;20051;-59
2022/07/04 04:49:16;;;;;;;586.38;550.58;;;13.00;99.90;;;;;;5112656;28;20485;-59
2022/07/04 04:51:42;;;;;;;620.38;578.38;;;13.10;99.90;;;;;;5113510;28;20055;-59
2022/07/04 04:54:08;;;;;;;640.97;600.65;;;13.10;99.90;;;;;;5113795;28;20048;-59
2022/07/04 04:56:34;;;;;;;632.55;590.90;;;13.20;99.90;;;;;;5112757;28;20036;-59
2022/07/04 04:59:00;;;;;;;505.42;475.63;;;13.30;99.90;;;;;;5113505;28;20059;-59
2022/07/04 05:01:26;;;;;;;590.47;553.33;;;13.30;99.90;;;;;;5113111;28;20039;-59
2022/07/04 05:03:51;;;;;;;463.25;435.42;;;13.40;99.90;;;;;;5112915;28;20046;-59
2022/07/04 05:06:18;;;;;;;543.38;510.60;;;13.40;99.90;;;;;;5113460;28;20047;-59
2022/07/04 05:08:44;;;;;;;567.45;533.25;;;13.40;99.90;;;;;;5112763;28;20075;-59
2022/07/04 05:11:10;;;;;;;568.55;532.63;;;13.50;99.90;;;;;;5113233;28;20047;-59
2022/07/04 05:13:36;;;;;;;503.02;466.73;;;13.60;99.90;;;;;;5113388;28;20489;-58
2022/07/04 05:16:02;;;;;;;512.60;480.25;;;13.60;99.90;;;;;;5112423;28;20133;-59
2022/07/04 05:18:28;;;;;;;503.05;471.48;;;13.70;99.90;;;;;;5112937;28;20100;-59
2022/07/04 05:20:53;;;;;;;474.45;446.58;;;13.70;99.90;;;;;;5112443;28;20039;-59
2022/07/04 05:23:20;;;;;;;411.00;388.75;;;13.70;99.90;;;;;;5111875;28;20071;-59
2022/07/04 05:25:47;;;;;;;441.17;415.80;;;13.80;99.90;;;;;;5112911;28;20047;-59
2022/07/04 05:28:13;;;;;;;471.00;443.23;;;13.90;99.90;;;;;;5112223;28;20067;-59
2022/07/04 05:30:39;;;;;;;500.85;469.77;;;14.00;99.90;;;;;;5112121;28;20071;-59
2022/07/04 05:33:04;;;;;;;492.02;463.08;;;14.10;99.90;;;;;;5113132;28;20036;-59
2022/07/04 05:35:31;;;;;;;473.27;444.23;;;14.20;99.90;;;;;;5112463;28;20485;-59
2022/07/04 05:37:57;;;;;;;418.02;393.75;;;14.30;99.90;;;;;;5109222;28;20180;-59
2022/07/04 05:40:23;;;;;;;559.20;524.22;;;14.40;99.90;;;;;;5112757;28;20099;-59
2022/07/04 05:42:49;;;;;;;547.88;511.08;;;14.50;99.90;;;;;;5111744;28;20130;-58
2022/07/04 05:45:15;;;;;;;492.00;460.70;;;14.60;99.90;;;;;;5111562;28;20644;-59
2022/07/04 05:47:41;;;;;;;483.83;454.98;;;14.70;99.90;;;;;;5112802;28;20157;-59
2022/07/04 05:50:07;;;;;;;485.42;455.23;;;14.80;99.90;;;;;;5115311;28;20130;-59
2022/07/04 05:52:33;;;;;;;520.90;488.73;;;15.00;99.90;;;;;;5116540;28;20050;-59
2022/07/04 05:54:59;;;;;;;509.63;476.50;;;15.30;99.90;;;;;;5116806;28;20039;-59
2022/07/04 05:57:24;;;;;;;490.65;458.33;;;15.40;99.90;;;;;;5117074;28;20523;-59
2022/07/04 05:59:50;;;;;;;486.33;457.92;;;15.30;99.90;;;;;;5115913;28;20051;-59
2022/07/04 06:02:16;;;;;;;500.75;469.92;;;15.40;99.90;;;;;;5116772;28;20122;-59
2022/07/04 06:04:43;;;;;;;427.52;401.30;;;15.30;99.90;;;;;;5116566;28;20507;-59
2022/07/04 06:07:09;;;;;;;438.65;412.50;;;15.30;99.90;;;;;;5116348;28;20043;-59
2022/07/04 06:09:35;;;;;;;392.52;369.92;;;15.30;99.90;;;;;;5116886;28;20100;-59
2022/07/04 06:12:01;;;;;;;562.75;525.08;;;15.30;99.90;;;;;;5097236;28;20043;-59
2022/07/04 06:14:27;;;;;;;490.65;462.10;;;15.20;99.90;;;;;;5116617;28;20160;-59
2022/07/04 06:16:53;;;;;;;560.20;523.75;;;15.20;99.90;;;;;;5116714;28;20040;-59
2022/07/04 06:19:19;;;;;;;514.53;482.30;;;15.20;99.90;;;;;;5115425;28;20043;-59
2022/07/04 06:21:44;;;;;;;556.67;520.92;;;15.30;99.90;;;;;;5116312;28;20048;-59
2022/07/04 06:24:10;;;;;;;523.90;492.75;;;15.40;99.90;;;;;;5098386;28;20048;-59
2022/07/04 06:26:36;;;;;;;517.38;484.55;;;15.40;99.90;;;;;;5115628;28;20044;-59
2022/07/04 06:29:02;;;;;;;558.15;522.63;;;15.60;99.90;;;;;;5115721;28;20044;-59
2022/07/04 06:31:28;;;;;;;496.65;466.33;;;15.70;99.90;;;;;;5116840;28;20504;-59
2022/07/04 06:36:38;;;;;;;550.65;515.63;;;15.90;99.90;;;;;;5115806;28;20036;-59
2022/07/04 06:39:03;;;;;;;566.60;530.30;;;16.00;99.90;;;;;;5097063;28;20546;-59
2022/07/04 06:41:29;;;;;;;529.65;497.58;;;16.10;99.90;;;;;;5058733;28;20048;-59
2022/07/04 06:43:55;;;;;;;508.48;478.08;;;16.20;99.90;;;;;;5115446;28;20093;-59
2022/07/04 06:46:21;;;;;;;465.75;436.42;;;16.20;99.90;;;;;;5115042;28;20091;-59
2022/07/04 06:48:47;;;;;;;472.17;443.58;;;16.20;99.90;;;;;;5114487;28;20036;-59
2022/07/04 06:51:13;;;;;;;519.08;486.83;;;16.20;99.90;;;;;;5116068;28;20043;-60
2022/07/04 06:53:41;;;;;;;565.20;529.10;;;16.40;99.90;;;;;;5116032;28;20097;-59
2022/07/04 06:56:07;;;;;;;394.55;371.73;;;16.60;99.90;;;;;;5114279;28;20052;-59
2022/07/04 06:58:33;;;;;;;477.00;448.77;;;16.70;99.90;;;;;;5115982;28;20039;-59
2022/07/04 07:00:59;;;;;;;410.38;386.40;;;16.70;99.90;;;;;;5115583;28;20058;-59
2022/07/04 07:03:27;;;;;;;467.08;437.30;;;16.80;99.90;;;;;;5098004;28;20048;-59
2022/07/04 07:05:53;;;;;;;434.40;408.50;;;16.90;99.90;;;;;;5112552;28;20477;-59
2022/07/04 07:08:18;;;;;;;571.58;534.38;;;17.10;99.90;;;;;;5108119;28;20101;-59
2022/07/04 07:10:44;;;;;;;451.60;424.23;;;17.20;99.90;;;;;;5107387;28;20093;-59
2022/07/04 07:13:11;;;;;;;363.50;342.15;;;17.20;99.90;;;;;;5114861;28;20101;-59
2022/07/04 07:15:37;;;;;;;477.38;446.42;;;17.30;99.90;;;;;;5096232;28;20044;-59
2022/07/04 07:18:03;;;;;;;438.17;410.55;;;17.40;99.90;;;;;;5110987;28;20131;-60
2022/07/04 07:20:29;;;;;;;383.15;360.92;;;17.40;99.90;;;;;;5114442;28;20086;-59
2022/07/04 07:22:55;;;;;;;480.50;447.92;;;17.40;99.90;;;;;;5113395;28;20071;-59
2022/07/04 07:25:21;;;;;;;426.73;400.10;;;17.50;99.90;;;;;;5114337;28;20051;-60
2022/07/04 07:27:47;;;;;;;320.17;302.40;;;17.50;99.90;;;;;;5114897;28;20043;-59
2022/07/04 07:30:13;;;;;;;418.67;392.08;;;17.60;99.90;;;;;;5113892;28;20489;-60
2022/07/04 07:32:39;;;;;;;382.33;357.83;;;17.70;99.90;;;;;;5095083;28;20052;-60
2022/07/04 07:35:05;;;;;;;409.63;384.35;;;17.70;99.90;;;;;;5094807;28;20473;-60
2022/07/04 07:37:31;;;;;;;379.23;355.73;;;17.80;99.90;;;;;;5099332;28;20043;-59
2022/07/04 07:39:56;;;;;;;417.27;393.75;;;17.90;99.90;;;;;;5113696;28;20062;-60
2022/07/04 07:42:25;;;;;;;396.90;372.00;;;18.20;99.90;;;;;;5114844;28;20409;-60
2022/07/04 07:44:51;;;;;;;385.38;363.58;;;18.20;99.90;;;;;;5113989;28;20568;-60
2022/07/04 07:47:17;;;;;;;456.33;428.27;;;18.30;99.90;;;;;;5114035;28;20047;-60
2022/07/04 07:49:44;;;;;;;342.30;321.50;;;18.10;99.90;;;;;;5114322;28;20096;-60
2022/07/04 07:52:10;;;;;;;380.80;358.98;;;18.10;99.90;;;;;;5093740;28;20052;-60
2022/07/04 07:54:35;;;;;;;520.90;483.30;;;18.10;99.90;;;;;;5094558;28;20051;-59
2022/07/04 07:57:02;;;;;;;428.65;401.05;;;18.10;99.90;;;;;;5114246;28;20043;-60
2022/07/04 07:59:27;;;;;;;359.25;338.10;;;18.00;99.90;;;;;;5113571;28;20048;-60
2022/07/04 08:01:53;;;;;;;468.17;441.70;;;18.00;99.90;;;;;;5114245;28;20047;-60
2022/07/04 08:04:34;;;;;;;480.73;448.92;;;18.10;99.90;;;;;;5114378;28;20153;-60
2022/07/04 08:07:04;;;;;;;231.20;220.02;;;18.10;99.90;;;;;;5113873;28;20105;-59
2022/07/04 08:09:30;;;;;;;327.77;311.50;;;18.20;99.90;;;;;;5114136;28;20565;-60
2022/07/04 08:11:56;;;;;;;355.92;336.88;;;18.50;99.90;;;;;;5112853;28;20118;-60
2022/07/04 08:14:22;;;;;;;281.08;267.25;;;18.80;99.90;;;;;;5096819;28;20401;-60
2022/07/04 08:16:48;;;;;;;335.98;318.52;;;18.80;99.90;;;;;;5108868;28;20162;-60
2022/07/04 08:19:14;;;;;;;408.77;385.08;;;18.90;99.90;;;;;;5092615;28;20044;-60
2022/07/04 08:21:40;;;;;;;445.20;415.85;;;18.80;99.90;;;;;;5080011;27;20494;-60
2022/07/04 08:24:06;;;;;;;523.70;489.60;;;19.00;99.90;;;;;;5124630;27;20397;-60
2022/07/04 08:26:32;;;;;;;310.35;294.02;;;19.00;99.90;;;;;;5112317;28;20040;-60
2022/07/04 08:28:59;;;;;;;254.77;242.07;;;19.00;99.90;;;;;;5113863;28;20046;-60
2022/07/04 08:31:27;;;;;;;268.70;254.43;;;19.00;99.90;;;;;;5113345;28;20547;-60
2022/07/04 08:33:53;;;;;;;453.30;427.05;;;19.00;99.90;;;;;;5112457;28;20043;-60
2022/07/04 08:36:19;;;;;;;321.40;305.38;;;18.90;99.90;;;;;;5077403;28;20043;-60
2022/07/04 08:38:45;;;;;;;235.18;224.25;;;18.80;99.90;;;;;;5093214;28;20044;-60
2022/07/04 08:41:14;;;;;;;316.63;300.55;;;18.70;99.90;;;;;;5092385;28;20486;-60
2022/07/04 08:43:41;;;;;;;361.50;341.13;;;18.60;99.90;;;;;;5098229;28;20048;-60
2022/07/04 08:46:10;;;;;;;356.40;338.52;;;18.40;99.90;;;;;;5112598;28;20036;-60
2022/07/04 08:48:38;;;;;;;365.88;347.08;;;18.20;99.90;;;;;;5109881;28;20032;-60
2022/07/04 08:51:15;;;;;;;332.45;314.73;;;18.10;99.90;;;;;;5094818;28;20097;-60
2022/07/04 08:53:50;;;;;;;289.23;275.17;;;18.00;99.90;;;;;;5103944;28;20051;-60
2022/07/04 08:59:04;;;;;;;338.85;321.45;;;18.00;99.90;;;;;;5094214;28;20543;-60
2022/07/04 09:01:30;;;;;;;324.67;308.73;;;18.10;99.90;;;;;;5112137;28;20051;-60
2022/07/04 09:03:56;;;;;;;428.92;404.27;;;18.10;99.90;;;;;;5113553;28;20048;-60
2022/07/04 09:06:24;;;;;;;319.45;303.50;;;18.00;99.90;;;;;;5113180;28;20126;-60
2022/07/04 09:08:50;;;;;;;351.35;333.83;;;18.00;99.90;;;;;;5111725;28;20039;-60
2022/07/04 09:11:15;;;;;;;296.10;281.58;;;17.90;99.90;;;;;;5098868;28;20039;-60
2022/07/04 09:13:41;;;;;;;357.20;339.75;;;17.90;99.90;;;;;;5111835;28;20050;-60
2022/07/04 09:16:07;;;;;;;300.63;285.58;;;17.90;99.90;;;;;;5112117;28;20051;-60
2022/07/04 09:18:35;;;;;;;292.15;277.98;;;17.80;99.90;;;;;;5111174;28;20040;-60
2022/07/04 09:21:03;;;;;;;292.20;277.90;;;17.80;99.90;;;;;;5112559;28;20050;-60
2022/07/04 09:23:32;;;;;;;279.65;266.40;;;17.90;99.90;;;;;;5110764;28;20032;-60
2022/07/04 09:26:10;;;;;;;344.67;326.45;;;17.90;99.90;;;;;;5111749;28;20039;-60
2022/07/04 09:28:37;;;;;;;305.85;290.58;;;17.90;99.90;;;;;;5110382;28;20096;-60
2022/07/04 09:31:14;;;;;;;408.50;386.60;;;18.00;99.90;;;;;;5112177;28;20432;-60
2022/07/04 09:33:49;;;;;;;317.10;302.52;;;18.10;99.90;;;;;;5094813;28;20371;-60
2022/07/04 09:36:18;;;;;;;310.02;294.50;;;18.20;99.90;;;;;;5111669;28;20045;-60
2022/07/04 09:38:44;;;;;;;271.83;259.08;;;18.30;99.90;;;;;;5106917;28;20039;-59
2022/07/04 09:41:25;;;;;;;260.52;248.27;;;18.50;99.90;;;;;;5105931;28;20069;-60
2022/07/04 09:44:06;;;;;;;399.63;377.30;;;18.80;99.90;;;;;;5111302;28;20087;-60
2022/07/04 09:46:33;;;;;;;405.75;382.58;;;19.10;99.90;;;;;;5112678;28;20048;-60
2022/07/04 09:48:59;;;;;;;222.13;211.80;;;18.90;99.90;;;;;;5112592;28;20127;-60
2022/07/04 09:51:40;;;;;;;369.38;348.75;;;19.20;99.90;;;;;;5112258;28;20044;-60
2022/07/04 09:54:35;;;;;;;376.77;354.33;;;19.50;99.90;;;;;;5112427;28;20081;-60
2022/07/04 09:57:02;;;;;;;291.35;275.95;;;19.70;99.90;;;;;;5112012;28;20415;-60
2022/07/04 09:59:29;;;;;;;398.02;374.95;;;19.90;99.90;;;;;;5112603;28;20040;-60
2022/07/04 10:02:14;;;;;;;510.27;479.65;;;19.90;99.90;;;;;;5112333;28;20048;-60
2022/07/04 10:04:43;;;;;;;555.53;523.85;;;20.20;99.90;;;;;;5112158;28;20071;-60
2022/07/04 10:07:08;;;;;;;564.05;524.95;;;20.40;99.90;;;;;;5112771;28;20074;-60
2022/07/04 10:09:34;;;;;;;610.40;568.80;;;20.30;99.90;;;;;;5112473;28;20079;-60
2022/07/04 10:12:01;;;;;;;632.83;593.47;;;20.20;99.90;;;;;;5111428;28;20062;-60
2022/07/04 10:14:27;;;;;;;487.23;461.35;;;20.40;99.90;;;;;;5094605;28;20123;-60
2022/07/04 10:16:54;;;;;;;482.48;454.38;;;20.40;99.90;;;;;;5112467;28;20122;-60
2022/07/04 10:19:20;;;;;;;515.30;486.48;;;20.50;99.90;;;;;;5111546;28;20100;-60
2022/07/04 10:21:47;;;;;;;540.55;508.55;;;20.60;99.90;;;;;;5112997;28;20043;-60
2022/07/04 10:24:12;;;;;;;480.67;452.25;;;20.70;99.90;;;;;;5112368;28;20044;-60
2022/07/04 10:26:38;;;;;;;523.15;493.83;;;21.00;99.90;;;;;;5093400;28;20051;-60
2022/07/04 10:29:04;;;;;;;514.17;485.15;;;21.10;99.90;;;;;;5112511;28;20054;-60
2022/07/04 10:31:31;;;;;;;634.35;594.78;;;21.10;99.90;;;;;;5112292;28;20066;-60
2022/07/04 10:33:59;;;;;;;564.03;529.88;;;21.10;99.90;;;;;;5111986;28;20048;-60
2022/07/04 10:36:29;;;;;;;616.42;576.22;;;21.00;99.90;;;;;;5115259;28;20047;-60
2022/07/04 10:38:58;;;;;;;516.20;485.77;;;20.90;99.90;;;;;;5116009;28;20043;-60
2022/07/04 10:41:25;;;;;;;459.98;436.05;;;21.10;99.90;;;;;;5115623;28;20048;-60
2022/07/04 10:43:56;;;;;;;602.45;565.83;;;21.70;99.90;;;;;;5116004;28;20060;-60
2022/07/04 10:46:35;;;;;;;610.10;569.42;;;22.20;99.90;;;;;;5114896;28;20051;-60
2022/07/04 10:49:16;;;;;;;756.08;700.83;;;22.20;99.60;;;;;;5116116;28;20404;-60
2022/07/04 10:51:48;;;;;;;427.40;401.80;;;22.50;98.40;;;;;;5097842;28;20055;-60
2022/07/04 10:54:28;;;;;;;493.88;464.23;;;22.30;98.50;;;;;;5114972;28;20069;-60
2022/07/04 10:56:57;;;;;;;544.08;510.23;;;22.30;96.00;;;;;;5116199;28;20101;-60
2022/07/04 10:59:26;;;;;;;523.50;493.88;;;22.70;97.60;;;;;;5115353;28;20396;-60
2022/07/04 11:02:22;;;;;;;521.28;491.40;;;22.60;97.30;;;;;;5114875;28;20050;-60
2022/07/04 11:05:02;;;;;;;463.75;439.90;;;22.70;96.20;;;;;;5115646;28;20123;-60
2022/07/04 11:07:30;;;;;;;544.13;513.47;;;22.90;97.10;;;;;;5114505;28;20073;-60
2022/07/04 11:10:12;;;;;;;453.67;430.92;;;23.00;97.10;;;;;;5114970;28;20469;-60
2022/07/04 11:12:53;;;;;;;571.13;536.63;;;22.90;98.00;;;;;;5113849;28;20562;-60
2022/07/04 11:15:41;;;;;;;450.92;427.95;;;22.40;97.50;;;;;;5114064;28;20325;-60
2022/07/04 11:18:09;;;;;;;786.28;521.05;;;21.80;99.00;;;;;;5114130;28;20386;-60
2022/07/04 11:20:38;;;;;;;1534.57;782.30;;;21.80;98.60;;;;;;5113865;28;20494;-60
2022/07/04 11:23:12;;;;;;;1999.90;999.90;;;22.20;96.20;;;;;;5094145;28;20097;-60
2022/07/04 11:25:39;;;;;;;418.17;395.80;;;22.70;96.10;;;;;;5112721;28;20044;-60
2022/07/04 11:28:24;;;;;;;446.13;415.92;;;23.10;97.40;;;;;;5114804;28;20389;-60
2022/07/04 11:30:55;;;;;;;305.25;285.73;;;23.50;96.70;;;;;;5111468;28;20055;-60
2022/07/04 11:33:28;;;;;;;1240.63;726.13;;;23.50;97.00;;;;;;5115195;28;20039;-60
2022/07/04 11:36:12;;;;;;;244.35;231.10;;;23.40;94.10;;;;;;5114462;28;20122;-60
2022/07/04 11:38:46;;;;;;;415.40;391.52;;;23.20;94.20;;;;;;5114745;28;20039;-60
2022/07/04 11:46:40;;;;;;;529.08;495.45;;;21.90;95.30;;;;;;5112807;28;20071;-60
2022/07/04 11:49:09;;;;;;;335.05;314.27;;;22.00;95.90;;;;;;5114303;28;20517;-60
2022/07/04 11:51:35;;;;;;;1192.40;677.67;;;22.60;97.10;;;;;;5113119;28;20043;-60
2022/07/04 11:54:05;;;;;;;426.48;403.25;;;23.10;94.00;;;;;;5113780;28;20036;-60
2022/07/04 11:56:31;;;;;;;1595.10;839.75;;;23.40;94.60;;;;;;5113922;28;20066;-60
2022/07/04 11:59:10;;;;;;;456.00;424.77;;;23.70;93.80;;;;;;5113695;28;20473;-60
2022/07/04 12:01:37;;;;;;;817.42;548.00;;;23.50;93.00;;;;;;5113311;28;20622;-60
2022/07/04 12:04:14;;;;;;;1999.90;999.90;;;23.50;92.50;;;;;;5113194;28;20043;-60
2022/07/04 12:06:41;;;;;;;1595.55;840.17;;;23.10;92.80;;;;;;5110595;28;20047;-60
2022/07/04 12:09:06;;;;;;;1999.90;999.90;;;22.60;94.20;;;;;;5111415;28;20085;-60
2022/07/04 12:11:57;;;;;;;229.15;216.48;;;22.40;95.20;;;;;;5113739;28;20078;-60
2022/07/04 12:14:23;;;;;;;671.28;627.65;;;22.80;97.40;;;;;;5110950;28;20043;-60
2022/07/04 12:16:49;;;;;;;515.20;480.35;;;23.10;93.20;;;;;;5113183;28;20493;-60
2022/07/04 12:19:15;;;;;;;490.13;459.13;;;23.20;92.00;;;;;;5113075;28;20096;-60
2022/07/04 12:21:43;;;;;;;450.38;422.30;;;23.20;94.00;;;;;;5113938;28;20056;-60
2022/07/04 12:24:08;;;;;;;396.75;372.88;;;23.10;91.80;;;;;;5113250;28;20046;-60
2022/07/04 12:26:45;;;;;;;384.55;362.45;;;22.70;90.70;;;;;;5096461;28;20048;-60